sensor_id;sensor_type;location;lat;lon;timestamp;P1;durP1;ratioP1;P2;durP2;ratioP2
41643;SDS011;44236;48.098;11.582;2023-06-14T00:00:20;6.50;;;3.22;;
41643;SDS011;44236;48.098;11.582;2023-06-14T00:02:45;5.88;;;2.80;;
41643;SDS011;44236;48.098;11.582;2023-06-14T00:05:12;5.65;;;2.60;;
41643;SDS011;44236;48.098;11.582;2023-06-14T00:07:39;5.28;;;2.63;;
41643;SDS011;44236;48.098;11.582;2023-06-14T00:10:09;6.25;;;3.10;;
41643;SDS011;44236;48.098;11.582;2023-06-14T00:12:36;7.43;;;3.00;;
41643;SDS011;44236;48.098;11.582;2023-06-14T00:15:02;5.35;;;3.35;;
41643;SDS011;44236;48.098;11.582;2023-06-14T00:17:28;4.40;;;2.63;;
41643;SDS011;44236;48.098;11.582;2023-06-14T00:19:57;7.50;;;2.53;;
41643;SDS011;44236;48.098;11.582;2023-06-14T00:22:23;5.60;;;2.30;;
41643;SDS011;44236;48.098;11.582;2023-06-14T00:24:52;6.57;;;2.92;;
41643;SDS011;44236;48.098;11.582;2023-06-14T00:27:18;5.63;;;3.05;;
41643;SDS011;44236;48.098;11.582;2023-06-14T00:29:43;5.65;;;2.85;;
41643;SDS011;44236;48.098;11.582;2023-06-14T00:32:09;6.18;;;2.92;;
41643;SDS011;44236;48.098;11.582;2023-06-14T00:34:35;4.40;;;2.60;;
41643;SDS011;44236;48.098;11.582;2023-06-14T00:37:00;4.70;;;2.20;;
41643;SDS011;44236;48.098;11.582;2023-06-14T00:39:26;4.95;;;2.83;;
41643;SDS011;44236;48.098;11.582;2023-06-14T00:41:52;5.32;;;2.95;;
41643;SDS011;44236;48.098;11.582;2023-06-14T00:44:18;5.72;;;2.72;;
41643;SDS011;44236;48.098;11.582;2023-06-14T00:46:47;7.10;;;3.25;;
41643;SDS011;44236;48.098;11.582;2023-06-14T00:49:15;5.63;;;2.28;;
41643;SDS011;44236;48.098;11.582;2023-06-14T00:51:42;5.00;;;2.65;;
41643;SDS011;44236;48.098;11.582;2023-06-14T00:54:08;4.72;;;2.55;;
41643;SDS011;44236;48.098;11.582;2023-06-14T00:56:37;4.22;;;2.50;;
41643;SDS011;44236;48.098;11.582;2023-06-14T00:59:04;4.82;;;2.58;;
41643;SDS011;44236;48.098;11.582;2023-06-14T01:01:31;3.63;;;2.22;;
41643;SDS011;44236;48.098;11.582;2023-06-14T01:04:00;5.47;;;2.50;;
41643;SDS011;44236;48.098;11.582;2023-06-14T01:06:45;5.15;;;2.28;;
41643;SDS011;44236;48.098;11.582;2023-06-14T01:09:43;6.90;;;2.47;;
41643;SDS011;44236;48.098;11.582;2023-06-14T01:15:13;6.20;;;2.65;;
41643;SDS011;44236;48.098;11.582;2023-06-14T01:17:39;4.03;;;2.30;;
41643;SDS011;44236;48.098;11.582;2023-06-14T01:20:09;4.90;;;2.60;;
41643;SDS011;44236;48.098;11.582;2023-06-14T01:22:47;4.57;;;2.50;;
41643;SDS011;44236;48.098;11.582;2023-06-14T01:25:18;4.28;;;2.42;;
41643;SDS011;44236;48.098;11.582;2023-06-14T01:27:51;4.25;;;2.50;;
41643;SDS011;44236;48.098;11.582;2023-06-14T01:30:35;4.57;;;2.47;;
41643;SDS011;44236;48.098;11.582;2023-06-14T01:33:10;5.78;;;2.72;;
41643;SDS011;44236;48.098;11.582;2023-06-14T01:35:42;4.95;;;2.80;;
41643;SDS011;44236;48.098;11.582;2023-06-14T01:38:09;5.50;;;3.03;;
41643;SDS011;44236;48.098;11.582;2023-06-14T01:40:35;4.75;;;2.40;;
41643;SDS011;44236;48.098;11.582;2023-06-14T01:43:03;4.30;;;2.47;;
41643;SDS011;44236;48.098;11.582;2023-06-14T01:45:30;4.47;;;2.20;;
41643;SDS011;44236;48.098;11.582;2023-06-14T01:47:56;4.90;;;2.47;;
41643;SDS011;44236;48.098;11.582;2023-06-14T01:50:22;4.63;;;2.60;;
41643;SDS011;44236;48.098;11.582;2023-06-14T01:52:48;4.72;;;2.45;;
41643;SDS011;44236;48.098;11.582;2023-06-14T01:55:13;5.97;;;2.20;;
41643;SDS011;44236;48.098;11.582;2023-06-14T01:57:39;4.75;;;2.53;;
41643;SDS011;44236;48.098;11.582;2023-06-14T02:00:05;5.03;;;2.08;;
41643;SDS011;44236;48.098;11.582;2023-06-14T02:02:37;4.63;;;2.45;;
41643;SDS011;44236;48.098;11.582;2023-06-14T02:05:03;4.22;;;2.17;;
41643;SDS011;44236;48.098;11.582;2023-06-14T02:07:29;5.63;;;2.20;;
41643;SDS011;44236;48.098;11.582;2023-06-14T02:09:55;5.00;;;2.30;;
41643;SDS011;44236;48.098;11.582;2023-06-14T02:12:20;2.95;;;1.85;;
41643;SDS011;44236;48.098;11.582;2023-06-14T02:14:46;5.57;;;2.47;;
41643;SDS011;44236;48.098;11.582;2023-06-14T02:17:12;4.30;;;2.47;;
41643;SDS011;44236;48.098;11.582;2023-06-14T02:19:37;3.63;;;2.08;;
41643;SDS011;44236;48.098;11.582;2023-06-14T02:22:03;5.13;;;2.95;;
41643;SDS011;44236;48.098;11.582;2023-06-14T02:24:29;4.95;;;2.53;;
41643;SDS011;44236;48.098;11.582;2023-06-14T02:26:55;3.90;;;2.38;;
41643;SDS011;44236;48.098;11.582;2023-06-14T02:29:20;4.03;;;2.30;;
41643;SDS011;44236;48.098;11.582;2023-06-14T02:31:46;3.63;;;2.05;;
41643;SDS011;44236;48.098;11.582;2023-06-14T02:34:13;3.75;;;1.95;;
41643;SDS011;44236;48.098;11.582;2023-06-14T02:36:42;4.05;;;2.25;;
41643;SDS011;44236;48.098;11.582;2023-06-14T02:39:10;4.30;;;2.22;;
41643;SDS011;44236;48.098;11.582;2023-06-14T02:41:36;4.45;;;2.05;;
41643;SDS011;44236;48.098;11.582;2023-06-14T02:44:02;4.15;;;2.15;;
41643;SDS011;44236;48.098;11.582;2023-06-14T02:46:28;4.72;;;2.28;;
41643;SDS011;44236;48.098;11.582;2023-06-14T02:48:53;4.00;;;2.25;;
41643;SDS011;44236;48.098;11.582;2023-06-14T02:51:19;3.95;;;2.53;;
41643;SDS011;44236;48.098;11.582;2023-06-14T02:53:45;3.78;;;2.15;;
41643;SDS011;44236;48.098;11.582;2023-06-14T02:56:10;4.30;;;1.65;;
41643;SDS011;44236;48.098;11.582;2023-06-14T02:58:37;4.40;;;2.70;;
41643;SDS011;44236;48.098;11.582;2023-06-14T03:01:04;3.65;;;2.03;;
41643;SDS011;44236;48.098;11.582;2023-06-14T03:03:32;3.38;;;2.13;;
41643;SDS011;44236;48.098;11.582;2023-06-14T03:05:58;3.80;;;2.00;;
41643;SDS011;44236;48.098;11.582;2023-06-14T03:08:29;3.08;;;1.73;;
41643;SDS011;44236;48.098;11.582;2023-06-14T03:10:56;3.55;;;2.00;;
41643;SDS011;44236;48.098;11.582;2023-06-14T03:13:22;4.25;;;2.40;;
41643;SDS011;44236;48.098;11.582;2023-06-14T03:15:48;3.25;;;1.92;;
41643;SDS011;44236;48.098;11.582;2023-06-14T03:18:17;4.15;;;2.50;;
41643;SDS011;44236;48.098;11.582;2023-06-14T03:20:42;3.45;;;1.80;;
41643;SDS011;44236;48.098;11.582;2023-06-14T03:23:10;4.10;;;1.70;;
41643;SDS011;44236;48.098;11.582;2023-06-14T03:25:36;10.50;;;2.63;;
41643;SDS011;44236;48.098;11.582;2023-06-14T03:28:03;4.32;;;2.58;;
41643;SDS011;44236;48.098;11.582;2023-06-14T03:30:30;4.47;;;1.90;;
41643;SDS011;44236;48.098;11.582;2023-06-14T03:32:56;4.15;;;2.40;;
41643;SDS011;44236;48.098;11.582;2023-06-14T03:35:23;3.80;;;1.77;;
41643;SDS011;44236;48.098;11.582;2023-06-14T03:37:48;3.55;;;2.13;;
41643;SDS011;44236;48.098;11.582;2023-06-14T03:40:15;3.60;;;2.00;;
41643;SDS011;44236;48.098;11.582;2023-06-14T03:42:42;3.97;;;2.00;;
41643;SDS011;44236;48.098;11.582;2023-06-14T03:45:08;3.70;;;2.10;;
41643;SDS011;44236;48.098;11.582;2023-06-14T03:47:34;3.75;;;2.47;;
41643;SDS011;44236;48.098;11.582;2023-06-14T03:50:01;7.55;;;2.50;;
41643;SDS011;44236;48.098;11.582;2023-06-14T03:52:27;5.00;;;1.85;;
41643;SDS011;44236;48.098;11.582;2023-06-14T03:54:53;3.63;;;2.13;;
41643;SDS011;44236;48.098;11.582;2023-06-14T03:57:19;3.45;;;2.00;;
41643;SDS011;44236;48.098;11.582;2023-06-14T03:59:47;3.70;;;2.17;;
41643;SDS011;44236;48.098;11.582;2023-06-14T04:02:13;3.25;;;2.03;;
41643;SDS011;44236;48.098;11.582;2023-06-14T04:04:43;3.78;;;2.03;;
41643;SDS011;44236;48.098;11.582;2023-06-14T04:07:13;3.47;;;1.92;;
41643;SDS011;44236;48.098;11.582;2023-06-14T04:09:39;3.50;;;2.25;;
41643;SDS011;44236;48.098;11.582;2023-06-14T04:12:05;3.60;;;1.92;;
41643;SDS011;44236;48.098;11.582;2023-06-14T04:14:33;2.88;;;1.90;;
41643;SDS011;44236;48.098;11.582;2023-06-14T04:16:59;3.60;;;2.10;;
41643;SDS011;44236;48.098;11.582;2023-06-14T04:19:25;4.00;;;2.03;;
41643;SDS011;44236;48.098;11.582;2023-06-14T04:21:50;3.60;;;2.05;;
41643;SDS011;44236;48.098;11.582;2023-06-14T04:24:16;3.97;;;2.20;;
41643;SDS011;44236;48.098;11.582;2023-06-14T04:26:42;4.28;;;2.35;;
41643;SDS011;44236;48.098;11.582;2023-06-14T04:29:10;3.60;;;1.73;;
41643;SDS011;44236;48.098;11.582;2023-06-14T04:31:39;4.05;;;2.10;;
41643;SDS011;44236;48.098;11.582;2023-06-14T04:34:05;3.40;;;1.95;;
41643;SDS011;44236;48.098;11.582;2023-06-14T04:36:33;4.18;;;2.15;;
41643;SDS011;44236;48.098;11.582;2023-06-14T04:39:02;3.30;;;1.83;;
41643;SDS011;44236;48.098;11.582;2023-06-14T04:41:29;3.53;;;2.20;;
41643;SDS011;44236;48.098;11.582;2023-06-14T04:43:55;3.72;;;2.38;;
41643;SDS011;44236;48.098;11.582;2023-06-14T04:46:23;7.43;;;2.20;;
41643;SDS011;44236;48.098;11.582;2023-06-14T04:48:49;3.47;;;1.73;;
41643;SDS011;44236;48.098;11.582;2023-06-14T04:51:15;4.00;;;2.47;;
41643;SDS011;44236;48.098;11.582;2023-06-14T04:53:41;4.78;;;1.90;;
41643;SDS011;44236;48.098;11.582;2023-06-14T04:56:07;5.55;;;2.92;;
41643;SDS011;44236;48.098;11.582;2023-06-14T04:58:33;9.57;;;2.67;;
41643;SDS011;44236;48.098;11.582;2023-06-14T05:00:59;11.10;;;2.67;;
41643;SDS011;44236;48.098;11.582;2023-06-14T05:03:25;10.00;;;3.17;;
41643;SDS011;44236;48.098;11.582;2023-06-14T05:05:51;18.45;;;3.53;;
41643;SDS011;44236;48.098;11.582;2023-06-14T05:08:18;11.70;;;3.22;;
41643;SDS011;44236;48.098;11.582;2023-06-14T05:10:48;13.40;;;2.92;;
41643;SDS011;44236;48.098;11.582;2023-06-14T05:13:14;12.82;;;3.55;;
41643;SDS011;44236;48.098;11.582;2023-06-14T05:15:40;8.70;;;3.40;;
41643;SDS011;44236;48.098;11.582;2023-06-14T05:18:06;6.93;;;3.30;;
41643;SDS011;44236;48.098;11.582;2023-06-14T05:20:33;9.57;;;3.35;;
41643;SDS011;44236;48.098;11.582;2023-06-14T05:22:59;5.95;;;3.03;;
41643;SDS011;44236;48.098;11.582;2023-06-14T05:25:25;7.03;;;3.03;;
41643;SDS011;44236;48.098;11.582;2023-06-14T05:27:53;6.18;;;3.33;;
41643;SDS011;44236;48.098;11.582;2023-06-14T05:30:18;7.55;;;3.60;;
41643;SDS011;44236;48.098;11.582;2023-06-14T05:32:44;7.82;;;3.33;;
41643;SDS011;44236;48.098;11.582;2023-06-14T05:35:10;9.90;;;3.03;;
41643;SDS011;44236;48.098;11.582;2023-06-14T05:37:35;8.23;;;2.78;;
41643;SDS011;44236;48.098;11.582;2023-06-14T05:40:02;10.00;;;3.10;;
41643;SDS011;44236;48.098;11.582;2023-06-14T05:42:30;10.07;;;3.78;;
41643;SDS011;44236;48.098;11.582;2023-06-14T05:44:56;7.70;;;2.60;;
41643;SDS011;44236;48.098;11.582;2023-06-14T05:47:21;8.85;;;3.10;;
41643;SDS011;44236;48.098;11.582;2023-06-14T05:49:47;6.72;;;2.92;;
41643;SDS011;44236;48.098;11.582;2023-06-14T05:52:13;8.82;;;3.13;;
41643;SDS011;44236;48.098;11.582;2023-06-14T05:54:38;5.97;;;2.47;;
41643;SDS011;44236;48.098;11.582;2023-06-14T05:57:04;6.93;;;3.38;;
41643;SDS011;44236;48.098;11.582;2023-06-14T05:59:31;5.90;;;2.80;;
41643;SDS011;44236;48.098;11.582;2023-06-14T06:01:57;8.50;;;2.40;;
41643;SDS011;44236;48.098;11.582;2023-06-14T06:04:23;8.60;;;2.97;;
41643;SDS011;44236;48.098;11.582;2023-06-14T06:06:48;15.18;;;2.92;;
41643;SDS011;44236;48.098;11.582;2023-06-14T06:09:14;10.32;;;2.95;;
41643;SDS011;44236;48.098;11.582;2023-06-14T06:11:40;7.15;;;2.40;;
41643;SDS011;44236;48.098;11.582;2023-06-14T06:14:06;11.18;;;2.42;;
41643;SDS011;44236;48.098;11.582;2023-06-14T06:16:31;7.18;;;2.58;;
41643;SDS011;44236;48.098;11.582;2023-06-14T06:18:58;7.78;;;2.85;;
41643;SDS011;44236;48.098;11.582;2023-06-14T06:21:24;12.95;;;2.78;;
41643;SDS011;44236;48.098;11.582;2023-06-14T06:23:50;6.75;;;2.60;;
41643;SDS011;44236;48.098;11.582;2023-06-14T06:26:15;9.20;;;2.88;;
41643;SDS011;44236;48.098;11.582;2023-06-14T06:28:41;9.10;;;2.10;;
41643;SDS011;44236;48.098;11.582;2023-06-14T06:31:07;10.77;;;2.78;;
41643;SDS011;44236;48.098;11.582;2023-06-14T06:33:32;13.35;;;3.17;;
41643;SDS011;44236;48.098;11.582;2023-06-14T06:35:58;5.00;;;2.67;;
41643;SDS011;44236;48.098;11.582;2023-06-14T06:38:23;6.43;;;2.40;;
41643;SDS011;44236;48.098;11.582;2023-06-14T06:40:49;3.75;;;2.05;;
41643;SDS011;44236;48.098;11.582;2023-06-14T06:43:15;18.40;;;3.10;;
41643;SDS011;44236;48.098;11.582;2023-06-14T06:45:42;9.95;;;2.85;;
41643;SDS011;44236;48.098;11.582;2023-06-14T06:48:07;6.15;;;2.33;;
41643;SDS011;44236;48.098;11.582;2023-06-14T06:50:35;8.38;;;2.75;;
41643;SDS011;44236;48.098;11.582;2023-06-14T06:53:01;13.52;;;3.20;;
41643;SDS011;44236;48.098;11.582;2023-06-14T06:55:27;9.57;;;2.50;;
41643;SDS011;44236;48.098;11.582;2023-06-14T06:57:53;6.20;;;2.45;;
41643;SDS011;44236;48.098;11.582;2023-06-14T07:00:19;13.18;;;3.65;;
41643;SDS011;44236;48.098;11.582;2023-06-14T07:02:45;9.35;;;2.58;;
41643;SDS011;44236;48.098;11.582;2023-06-14T07:05:11;7.20;;;2.53;;
41643;SDS011;44236;48.098;11.582;2023-06-14T07:07:36;5.18;;;3.00;;
41643;SDS011;44236;48.098;11.582;2023-06-14T07:10:03;4.43;;;2.30;;
41643;SDS011;44236;48.098;11.582;2023-06-14T07:12:30;14.73;;;3.22;;
41643;SDS011;44236;48.098;11.582;2023-06-14T07:14:58;8.30;;;2.50;;
41643;SDS011;44236;48.098;11.582;2023-06-14T07:17:25;12.45;;;2.88;;
41643;SDS011;44236;48.098;11.582;2023-06-14T07:19:51;10.57;;;2.97;;
41643;SDS011;44236;48.098;11.582;2023-06-14T07:22:16;5.10;;;2.95;;
41643;SDS011;44236;48.098;11.582;2023-06-14T07:24:42;6.40;;;2.53;;
41643;SDS011;44236;48.098;11.582;2023-06-14T07:27:08;6.10;;;2.58;;
41643;SDS011;44236;48.098;11.582;2023-06-14T07:29:34;4.47;;;2.08;;
41643;SDS011;44236;48.098;11.582;2023-06-14T07:32:00;5.25;;;2.42;;
41643;SDS011;44236;48.098;11.582;2023-06-14T07:34:25;6.10;;;2.65;;
41643;SDS011;44236;48.098;11.582;2023-06-14T07:36:52;6.93;;;3.28;;
41643;SDS011;44236;48.098;11.582;2023-06-14T07:39:19;4.43;;;2.20;;
41643;SDS011;44236;48.098;11.582;2023-06-14T07:41:44;7.55;;;2.55;;
41643;SDS011;44236;48.098;11.582;2023-06-14T07:44:10;4.30;;;2.50;;
41643;SDS011;44236;48.098;11.582;2023-06-14T07:46:37;4.95;;;2.50;;
41643;SDS011;44236;48.098;11.582;2023-06-14T07:49:03;3.20;;;1.75;;
41643;SDS011;44236;48.098;11.582;2023-06-14T07:51:30;4.80;;;2.35;;
41643;SDS011;44236;48.098;11.582;2023-06-14T07:53:55;2.70;;;1.25;;
41643;SDS011;44236;48.098;11.582;2023-06-14T07:56:21;4.50;;;2.28;;
41643;SDS011;44236;48.098;11.582;2023-06-14T07:58:48;4.60;;;2.20;;
41643;SDS011;44236;48.098;11.582;2023-06-14T08:01:13;2.58;;;1.27;;
41643;SDS011;44236;48.098;11.582;2023-06-14T08:03:40;3.65;;;2.08;;
41643;SDS011;44236;48.098;11.582;2023-06-14T08:06:06;4.00;;;1.60;;
41643;SDS011;44236;48.098;11.582;2023-06-14T08:08:32;6.82;;;1.70;;
41643;SDS011;44236;48.098;11.582;2023-06-14T08:10:58;5.07;;;2.10;;
41643;SDS011;44236;48.098;11.582;2023-06-14T08:13:23;3.70;;;2.10;;
41643;SDS011;44236;48.098;11.582;2023-06-14T08:15:49;4.70;;;2.25;;
41643;SDS011;44236;48.098;11.582;2023-06-14T08:18:15;5.00;;;2.05;;
41643;SDS011;44236;48.098;11.582;2023-06-14T08:20:41;3.65;;;2.22;;
41643;SDS011;44236;48.098;11.582;2023-06-14T08:23:06;4.50;;;2.40;;
41643;SDS011;44236;48.098;11.582;2023-06-14T08:25:33;6.78;;;1.98;;
41643;SDS011;44236;48.098;11.582;2023-06-14T08:27:58;3.28;;;1.98;;
41643;SDS011;44236;48.098;11.582;2023-06-14T08:30:25;3.13;;;1.65;;
41643;SDS011;44236;48.098;11.582;2023-06-14T08:32:50;3.72;;;2.00;;
41643;SDS011;44236;48.098;11.582;2023-06-14T08:35:16;5.82;;;2.53;;
41643;SDS011;44236;48.098;11.582;2023-06-14T08:37:43;3.55;;;1.90;;
41643;SDS011;44236;48.098;11.582;2023-06-14T08:40:13;3.45;;;2.05;;
41643;SDS011;44236;48.098;11.582;2023-06-14T08:42:44;4.53;;;2.05;;
41643;SDS011;44236;48.098;11.582;2023-06-14T08:45:12;3.20;;;1.70;;
41643;SDS011;44236;48.098;11.582;2023-06-14T08:47:37;3.42;;;1.73;;
41643;SDS011;44236;48.098;11.582;2023-06-14T08:50:03;3.17;;;1.65;;
41643;SDS011;44236;48.098;11.582;2023-06-14T08:52:31;4.05;;;1.83;;
41643;SDS011;44236;48.098;11.582;2023-06-14T08:55:05;3.97;;;1.83;;
41643;SDS011;44236;48.098;11.582;2023-06-14T08:57:31;4.43;;;2.25;;
41643;SDS011;44236;48.098;11.582;2023-06-14T09:00:02;3.60;;;1.90;;
41643;SDS011;44236;48.098;11.582;2023-06-14T09:02:37;3.40;;;2.00;;
41643;SDS011;44236;48.098;11.582;2023-06-14T09:05:03;2.53;;;1.50;;
41643;SDS011;44236;48.098;11.582;2023-06-14T09:07:28;3.42;;;1.63;;
41643;SDS011;44236;48.098;11.582;2023-06-14T09:10:07;6.95;;;2.05;;
41643;SDS011;44236;48.098;11.582;2023-06-14T09:12:37;2.72;;;1.75;;
41643;SDS011;44236;48.098;11.582;2023-06-14T09:15:05;5.63;;;2.00;;
41643;SDS011;44236;48.098;11.582;2023-06-14T09:17:33;3.67;;;1.88;;
41643;SDS011;44236;48.098;11.582;2023-06-14T09:20:01;3.35;;;1.73;;
41643;SDS011;44236;48.098;11.582;2023-06-14T09:22:43;2.50;;;1.55;;
41643;SDS011;44236;48.098;11.582;2023-06-14T09:25:09;3.45;;;1.75;;
41643;SDS011;44236;48.098;11.582;2023-06-14T09:27:37;4.47;;;1.45;;
41643;SDS011;44236;48.098;11.582;2023-06-14T09:30:05;3.80;;;1.83;;
41643;SDS011;44236;48.098;11.582;2023-06-14T09:32:36;3.72;;;1.50;;
41643;SDS011;44236;48.098;11.582;2023-06-14T09:35:03;3.83;;;2.03;;
41643;SDS011;44236;48.098;11.582;2023-06-14T09:37:31;3.60;;;1.90;;
41643;SDS011;44236;48.098;11.582;2023-06-14T09:39:57;3.17;;;1.90;;
41643;SDS011;44236;48.098;11.582;2023-06-14T09:42:24;4.03;;;1.52;;
41643;SDS011;44236;48.098;11.582;2023-06-14T09:44:51;3.17;;;1.60;;
41643;SDS011;44236;48.098;11.582;2023-06-14T09:47:18;4.93;;;2.22;;
41643;SDS011;44236;48.098;11.582;2023-06-14T09:49:44;3.30;;;1.42;;
41643;SDS011;44236;48.098;11.582;2023-06-14T09:52:10;3.10;;;1.35;;
41643;SDS011;44236;48.098;11.582;2023-06-14T09:54:40;3.25;;;1.50;;
41643;SDS011;44236;48.098;11.582;2023-06-14T09:57:12;7.97;;;1.50;;
41643;SDS011;44236;48.098;11.582;2023-06-14T09:59:43;2.75;;;1.67;;
41643;SDS011;44236;48.098;11.582;2023-06-14T10:04:58;2.90;;;1.40;;
41643;SDS011;44236;48.098;11.582;2023-06-14T10:07:30;2.60;;;1.25;;
41643;SDS011;44236;48.098;11.582;2023-06-14T10:10:04;4.00;;;1.50;;
41643;SDS011;44236;48.098;11.582;2023-06-14T10:12:30;4.05;;;2.10;;
41643;SDS011;44236;48.098;11.582;2023-06-14T10:14:56;3.38;;;2.00;;
41643;SDS011;44236;48.098;11.582;2023-06-14T10:20:16;2.70;;;1.30;;
41643;SDS011;44236;48.098;11.582;2023-06-14T10:22:49;2.80;;;1.38;;
41643;SDS011;44236;48.098;11.582;2023-06-14T10:25:30;2.08;;;1.17;;
41643;SDS011;44236;48.098;11.582;2023-06-14T10:30:37;2.38;;;1.50;;
41643;SDS011;44236;48.098;11.582;2023-06-14T10:33:03;4.25;;;1.42;;
41643;SDS011;44236;48.098;11.582;2023-06-14T10:35:31;2.63;;;1.55;;
41643;SDS011;44236;48.098;11.582;2023-06-14T10:38:06;2.90;;;1.60;;
41643;SDS011;44236;48.098;11.582;2023-06-14T10:40:32;2.65;;;1.63;;
41643;SDS011;44236;48.098;11.582;2023-06-14T10:42:59;3.08;;;1.52;;
41643;SDS011;44236;48.098;11.582;2023-06-14T10:45:24;2.90;;;1.50;;
41643;SDS011;44236;48.098;11.582;2023-06-14T10:47:50;5.85;;;1.60;;
41643;SDS011;44236;48.098;11.582;2023-06-14T10:50:17;3.30;;;1.85;;
41643;SDS011;44236;48.098;11.582;2023-06-14T10:52:54;2.92;;;1.40;;
41643;SDS011;44236;48.098;11.582;2023-06-14T10:55:20;3.53;;;1.52;;
41643;SDS011;44236;48.098;11.582;2023-06-14T11:00:17;2.63;;;1.67;;
41643;SDS011;44236;48.098;11.582;2023-06-14T11:05:41;3.17;;;1.50;;
41643;SDS011;44236;48.098;11.582;2023-06-14T11:10:44;3.10;;;1.40;;
41643;SDS011;44236;48.098;11.582;2023-06-14T11:13:13;2.58;;;1.55;;
41643;SDS011;44236;48.098;11.582;2023-06-14T11:15:45;3.15;;;1.70;;
41643;SDS011;44236;48.098;11.582;2023-06-14T11:18:12;2.40;;;1.40;;
41643;SDS011;44236;48.098;11.582;2023-06-14T11:20:39;3.85;;;1.85;;
41643;SDS011;44236;48.098;11.582;2023-06-14T11:23:05;2.92;;;1.50;;
41643;SDS011;44236;48.098;11.582;2023-06-14T11:25:30;2.53;;;1.45;;
41643;SDS011;44236;48.098;11.582;2023-06-14T11:27:57;4.20;;;1.88;;
41643;SDS011;44236;48.098;11.582;2023-06-14T11:30:24;2.25;;;1.33;;
41643;SDS011;44236;48.098;11.582;2023-06-14T11:32:51;2.22;;;1.45;;
41643;SDS011;44236;48.098;11.582;2023-06-14T11:35:18;4.93;;;1.88;;
41643;SDS011;44236;48.098;11.582;2023-06-14T11:37:48;3.10;;;1.70;;
41643;SDS011;44236;48.098;11.582;2023-06-14T11:40:14;1.88;;;1.23;;
41643;SDS011;44236;48.098;11.582;2023-06-14T11:42:40;2.47;;;1.50;;
41643;SDS011;44236;48.098;11.582;2023-06-14T11:45:10;2.92;;;1.42;;
41643;SDS011;44236;48.098;11.582;2023-06-14T11:47:37;4.03;;;1.60;;
41643;SDS011;44236;48.098;11.582;2023-06-14T11:50:05;3.13;;;1.70;;
41643;SDS011;44236;48.098;11.582;2023-06-14T11:52:32;3.58;;;1.48;;
41643;SDS011;44236;48.098;11.582;2023-06-14T11:54:58;2.35;;;1.35;;
41643;SDS011;44236;48.098;11.582;2023-06-14T11:57:24;3.88;;;2.08;;
41643;SDS011;44236;48.098;11.582;2023-06-14T11:59:50;3.15;;;1.75;;
41643;SDS011;44236;48.098;11.582;2023-06-14T12:02:17;5.82;;;1.88;;
41643;SDS011;44236;48.098;11.582;2023-06-14T12:04:46;2.75;;;1.27;;
41643;SDS011;44236;48.098;11.582;2023-06-14T12:07:16;2.85;;;1.60;;
41643;SDS011;44236;48.098;11.582;2023-06-14T12:12:20;3.17;;;1.70;;
41643;SDS011;44236;48.098;11.582;2023-06-14T12:14:47;3.05;;;1.70;;
41643;SDS011;44236;48.098;11.582;2023-06-14T12:17:13;5.10;;;1.92;;
41643;SDS011;44236;48.098;11.582;2023-06-14T12:19:42;3.08;;;1.58;;
41643;SDS011;44236;48.098;11.582;2023-06-14T12:22:10;2.53;;;1.67;;
41643;SDS011;44236;48.098;11.582;2023-06-14T12:24:35;3.67;;;1.85;;
41643;SDS011;44236;48.098;11.582;2023-06-14T12:27:01;4.25;;;1.60;;
41643;SDS011;44236;48.098;11.582;2023-06-14T12:29:29;4.20;;;1.60;;
41643;SDS011;44236;48.098;11.582;2023-06-14T12:31:54;2.90;;;1.80;;
41643;SDS011;44236;48.098;11.582;2023-06-14T12:34:22;2.88;;;1.60;;
41643;SDS011;44236;48.098;11.582;2023-06-14T12:36:49;2.00;;;1.35;;
41643;SDS011;44236;48.098;11.582;2023-06-14T12:39:15;4.47;;;1.60;;
41643;SDS011;44236;48.098;11.582;2023-06-14T12:41:41;4.20;;;1.52;;
41643;SDS011;44236;48.098;11.582;2023-06-14T12:44:07;4.15;;;1.60;;
41643;SDS011;44236;48.098;11.582;2023-06-14T12:46:33;3.13;;;1.88;;
41643;SDS011;44236;48.098;11.582;2023-06-14T12:49:00;2.92;;;1.60;;
41643;SDS011;44236;48.098;11.582;2023-06-14T12:51:26;3.13;;;1.60;;
41643;SDS011;44236;48.098;11.582;2023-06-14T12:53:52;2.92;;;1.70;;
41643;SDS011;44236;48.098;11.582;2023-06-14T12:56:17;3.30;;;1.70;;
41643;SDS011;44236;48.098;11.582;2023-06-14T12:58:43;4.20;;;1.65;;
41643;SDS011;44236;48.098;11.582;2023-06-14T13:01:09;3.63;;;1.80;;
41643;SDS011;44236;48.098;11.582;2023-06-14T13:03:35;2.95;;;1.33;;
41643;SDS011;44236;48.098;11.582;2023-06-14T13:06:01;3.40;;;1.60;;
41643;SDS011;44236;48.098;11.582;2023-06-14T13:08:29;3.47;;;2.00;;
41643;SDS011;44236;48.098;11.582;2023-06-14T13:10:55;3.80;;;1.80;;
41643;SDS011;44236;48.098;11.582;2023-06-14T13:13:21;3.60;;;1.83;;
41643;SDS011;44236;48.098;11.582;2023-06-14T13:15:48;2.28;;;1.45;;
41643;SDS011;44236;48.098;11.582;2023-06-14T13:18:14;3.30;;;1.65;;
41643;SDS011;44236;48.098;11.582;2023-06-14T13:20:40;3.78;;;2.00;;
41643;SDS011;44236;48.098;11.582;2023-06-14T13:23:06;2.83;;;1.70;;
41643;SDS011;44236;48.098;11.582;2023-06-14T13:25:33;3.10;;;1.77;;
41643;SDS011;44236;48.098;11.582;2023-06-14T13:27:59;3.95;;;1.85;;
41643;SDS011;44236;48.098;11.582;2023-06-14T13:30:25;3.17;;;1.67;;
41643;SDS011;44236;48.098;11.582;2023-06-14T13:32:51;2.78;;;1.45;;
41643;SDS011;44236;48.098;11.582;2023-06-14T13:35:17;3.30;;;1.58;;
41643;SDS011;44236;48.098;11.582;2023-06-14T13:37:43;4.32;;;1.80;;
41643;SDS011;44236;48.098;11.582;2023-06-14T13:40:09;3.55;;;2.35;;
41643;SDS011;44236;48.098;11.582;2023-06-14T13:42:35;3.72;;;1.95;;
41643;SDS011;44236;48.098;11.582;2023-06-14T13:45:02;2.78;;;1.70;;
41643;SDS011;44236;48.098;11.582;2023-06-14T13:47:29;2.38;;;1.60;;
41643;SDS011;44236;48.098;11.582;2023-06-14T13:49:55;3.47;;;1.77;;
41643;SDS011;44236;48.098;11.582;2023-06-14T13:52:21;3.83;;;1.70;;
41643;SDS011;44236;48.098;11.582;2023-06-14T13:54:47;3.28;;;1.77;;
41643;SDS011;44236;48.098;11.582;2023-06-14T13:57:13;2.78;;;1.70;;
41643;SDS011;44236;48.098;11.582;2023-06-14T13:59:39;3.75;;;2.03;;
41643;SDS011;44236;48.098;11.582;2023-06-14T14:02:05;3.55;;;1.73;;
41643;SDS011;44236;48.098;11.582;2023-06-14T14:04:32;3.15;;;1.67;;
41643;SDS011;44236;48.098;11.582;2023-06-14T14:07:00;3.03;;;1.92;;
41643;SDS011;44236;48.098;11.582;2023-06-14T14:09:26;2.88;;;1.73;;
41643;SDS011;44236;48.098;11.582;2023-06-14T14:11:51;3.90;;;1.85;;
41643;SDS011;44236;48.098;11.582;2023-06-14T14:14:17;2.63;;;1.75;;
41643;SDS011;44236;48.098;11.582;2023-06-14T14:16:43;2.80;;;1.52;;
41643;SDS011;44236;48.098;11.582;2023-06-14T14:19:09;3.03;;;1.73;;
41643;SDS011;44236;48.098;11.582;2023-06-14T14:21:34;3.30;;;1.80;;
41643;SDS011;44236;48.098;11.582;2023-06-14T14:24:00;3.22;;;1.90;;
41643;SDS011;44236;48.098;11.582;2023-06-14T14:26:26;2.63;;;1.40;;
41643;SDS011;44236;48.098;11.582;2023-06-14T14:28:52;3.22;;;1.65;;
41643;SDS011;44236;48.098;11.582;2023-06-14T14:31:18;2.75;;;1.60;;
41643;SDS011;44236;48.098;11.582;2023-06-14T14:33:44;3.50;;;2.00;;
41643;SDS011;44236;48.098;11.582;2023-06-14T14:36:09;2.38;;;1.67;;
41643;SDS011;44236;48.098;11.582;2023-06-14T14:38:35;2.97;;;1.48;;
41643;SDS011;44236;48.098;11.582;2023-06-14T14:41:01;3.05;;;1.60;;
41643;SDS011;44236;48.098;11.582;2023-06-14T14:43:26;3.50;;;1.88;;
41643;SDS011;44236;48.098;11.582;2023-06-14T14:45:55;2.78;;;1.55;;
41643;SDS011;44236;48.098;11.582;2023-06-14T14:48:20;3.28;;;2.13;;
41643;SDS011;44236;48.098;11.582;2023-06-14T14:50:46;3.08;;;1.77;;
41643;SDS011;44236;48.098;11.582;2023-06-14T14:53:12;3.63;;;2.45;;